Time;durP1;ratioP1;P1;durP2;ratioP2;P2;SDS_P1;SDS_P2;PMS_P1;PMS_P2;Temp;Humidity;BMP_temperature;BMP_pressure;BME280_temperature;BME280_humidity;BME280_pressure;Samples;Min_cycle;Max_cycle;Signal;HPM_P1;HPM_P2
2021/05/11 00:02:21;;;;;;;14.78;9.00;;;;;;;10.10;67.92;97885.31;1851729;76;27633;-72
2021/05/11 00:04:56;;;;;;;13.25;7.25;;;;;;;10.16;68.09;97893.10;1848096;76;22152;-72
2021/05/11 00:07:31;;;;;;;16.05;7.37;;;;;;;9.95;70.44;97896.22;1886216;76;22121;-72
2021/05/11 00:10:08;;;;;;;13.95;8.90;;;;;;;9.84;69.67;97895.46;1868645;76;27596;-72
2021/05/11 00:12:45;;;;;;;14.80;8.73;;;;;;;9.96;70.14;97894.58;1825971;76;22345;-72
2021/05/11 00:15:21;;;;;;;16.27;9.98;;;;;;;9.87;69.30;97893.55;1873955;76;38043;-73
2021/05/11 00:17:56;;;;;;;15.18;8.93;;;;;;;9.98;69.07;97882.92;1852390;77;22680;-72
2021/05/11 00:20:32;;;;;;;15.30;9.68;;;;;;;9.79;70.42;97885.45;1873976;76;27572;-73
2021/05/11 00:23:07;;;;;;;11.30;7.50;;;;;;;9.92;69.29;97879.19;1862206;75;22300;-72
2021/05/11 00:25:44;;;;;;;14.28;9.48;;;;;;;9.75;69.84;97876.83;1847355;76;22441;-72
2021/05/11 00:28:21;;;;;;;12.73;7.55;;;;;;;9.65;70.06;97873.59;1817317;76;22650;-72
2021/05/11 00:30:57;;;;;;;13.65;9.68;;;;;;;9.60;70.56;97873.64;1868630;76;38068;-72
2021/05/11 00:33:32;;;;;;;13.72;9.28;;;;;;;9.78;70.49;97873.56;1844080;76;22372;-72
2021/05/11 00:36:08;;;;;;;14.83;9.63;;;;;;;9.74;70.23;97871.12;1873954;76;28141;-72
2021/05/11 00:38:45;;;;;;;13.00;9.93;;;;;;;9.85;70.29;97876.23;1868619;76;38413;-72
2021/05/11 00:41:21;;;;;;;12.07;8.03;;;;;;;9.96;70.08;97877.53;1887436;76;22519;-73
2021/05/11 00:43:58;;;;;;;11.73;7.58;;;;;;;9.81;70.61;97878.41;1873887;76;27749;-72
2021/05/11 00:46:35;;;;;;;15.68;7.80;;;;;;;9.97;70.14;97877.24;1841947;76;22316;-73
2021/05/11 00:49:13;;;;;;;10.75;6.95;;;;;;;9.84;71.15;97875.97;1890215;76;22403;-72
2021/05/11 00:51:49;;;;;;;11.18;6.70;;;;;;;9.73;70.61;97866.80;1839407;76;22404;-72
2021/05/11 00:54:24;;;;;;;13.20;7.60;;;;;;;9.64;71.78;97866.58;1832359;76;27686;-72
2021/05/11 00:57:02;;;;;;;15.23;8.63;;;;;;;9.77;70.19;97870.05;1856732;76;27806;-72
2021/05/11 00:59:38;;;;;;;12.07;6.50;;;;;;;9.86;70.13;97858.91;1847661;76;22480;-72
2021/05/11 01:02:13;;;;;;;13.35;7.33;;;;;;;9.71;70.50;97863.58;1875113;76;22524;-72
2021/05/11 01:04:48;;;;;;;11.48;6.12;;;;;;;9.65;70.10;97860.08;1848100;76;22357;-72
2021/05/11 01:07:25;;;;;;;10.88;5.67;;;;;;;9.58;70.40;97859.04;1830207;76;22344;-72
2021/05/11 01:10:03;;;;;;;9.33;5.62;;;;;;;9.45;70.67;97855.56;1847462;76;22403;-72
2021/05/11 01:12:40;;;;;;;9.30;5.45;;;;;;;9.36;72.47;97853.16;1827229;76;22347;-72
2021/05/11 01:15:17;;;;;;;10.93;6.30;;;;;;;9.36;70.31;97856.41;1847467;76;22390;-72
2021/05/11 01:18:01;;;;;;;12.33;7.30;;;;;;;9.30;70.27;97849.66;1823627;76;22315;-72
2021/05/11 01:20:38;;;;;;;9.13;5.85;;;;;;;9.26;69.97;97844.55;1890196;76;22373;-72
2021/05/11 01:26:13;;;;;;;12.40;6.53;;;;;;;9.17;71.31;97838.09;1868652;76;27658;-72
2021/05/11 01:31:44;;;;;;;13.20;7.80;;;;;;;9.22;72.60;97835.89;1845090;76;22979;-72
2021/05/11 02:23:14;;;;;;;11.90;6.10;;;;;;;9.34;72.44;97813.42;1819740;76;22400;-72
2021/05/11 02:25:50;;;;;;;12.45;7.08;;;;;;;9.29;72.80;97807.48;1884776;75;21967;-72
2021/05/11 02:31:02;;;;;;;10.32;5.72;;;;;;;9.25;71.75;97808.33;1848067;76;22376;-72
2021/05/11 02:33:38;;;;;;;12.68;7.00;;;;;;;9.20;73.26;97800.22;1835955;77;27848;-72
2021/05/11 02:36:16;;;;;;;10.00;5.12;;;;;;;9.27;72.93;97804.25;1888867;76;22113;-73
2021/05/11 02:38:50;;;;;;;10.28;6.40;;;;;;;9.20;72.33;97806.44;1890157;76;22244;-72
2021/05/11 02:41:28;;;;;;;10.50;5.75;;;;;;;9.12;72.75;97804.84;1885979;76;22209;-72
2021/05/11 02:44:04;;;;;;;15.05;7.42;;;;;;;9.04;73.30;97801.61;1868635;76;27642;-72
2021/05/11 02:46:41;;;;;;;10.95;5.10;;;;;;;9.19;72.42;97799.41;1882650;76;22464;-73
2021/05/11 02:49:20;;;;;;;10.93;5.75;;;;;;;9.10;72.97;97797.55;1884799;76;21908;-73
2021/05/11 02:51:54;;;;;;;10.58;6.95;;;;;;;9.07;72.49;97798.12;1858153;76;27749;-73
2021/05/11 02:54:31;;;;;;;10.32;6.60;;;;;;;9.15;73.02;97796.20;1868637;76;27757;-72
2021/05/11 02:57:08;;;;;;;14.50;7.25;;;;;;;9.23;72.79;97800.50;1861836;75;22382;-72
2021/05/11 02:59:45;;;;;;;12.98;6.25;;;;;;;9.07;73.28;97792.71;1875658;75;22613;-72
2021/05/11 03:02:22;;;;;;;11.05;7.30;;;;;;;8.98;73.37;97797.33;1867720;76;22548;-73
2021/05/11 03:04:58;;;;;;;14.40;9.25;;;;;;;8.87;74.31;97790.31;1873938;76;27675;-72
2021/05/11 03:07:35;;;;;;;14.05;7.42;;;;;;;8.98;72.83;97790.57;1827832;76;22423;-72
2021/05/11 03:10:14;;;;;;;11.30;6.58;;;;;;;8.82;73.25;97794.39;1847486;76;22387;-72
2021/05/11 03:12:51;;;;;;;12.23;6.47;;;;;;;8.70;74.07;97798.72;1824220;76;22448;-73
2021/05/11 03:15:26;;;;;;;12.47;6.40;;;;;;;8.66;74.10;97799.01;1890192;76;22126;-72
2021/05/11 03:18:02;;;;;;;11.50;7.87;;;;;;;8.69;73.38;97798.99;1842089;76;38517;-72
2021/05/11 03:20:39;;;;;;;12.20;6.25;;;;;;;8.80;74.55;97795.19;1847465;76;22331;-72
2021/05/11 03:23:16;;;;;;;10.70;6.85;;;;;;;8.74;74.71;97794.95;1859955;76;23000;-73
2021/05/11 03:25:51;;;;;;;11.63;6.78;;;;;;;8.75;73.54;97797.91;1848058;76;22637;-72
2021/05/11 03:28:26;;;;;;;11.97;7.75;;;;;;;8.70;74.07;97797.36;1857660;76;22315;-72
2021/05/11 03:31:03;;;;;;;9.70;6.78;;;;;;;8.65;75.33;97794.69;1847346;76;22852;-73
2021/05/11 03:33:40;;;;;;;13.38;6.87;;;;;;;8.66;75.16;97786.85;1884795;76;21979;-73
2021/05/11 03:36:16;;;;;;;11.20;6.80;;;;;;;8.70;74.66;97781.70;1867193;76;27739;-73
2021/05/11 03:38:55;;;;;;;12.53;6.50;;;;;;;8.85;74.31;97783.57;1847335;76;22708;-73
2021/05/11 03:41:38;;;;;;;11.33;6.00;;;;;;;8.83;74.09;97781.69;1842833;76;22639;-72
2021/05/11 03:46:45;;;;;;;24.90;6.92;;;;;;;9.01;74.10;97787.31;1852350;77;22389;-72
2021/05/11 03:49:22;;;;;;;14.15;7.47;;;;;;;9.08;74.92;97779.46;1847334;75;22137;-72
2021/05/11 03:51:58;;;;;;;16.17;7.90;;;;;;;9.12;74.46;97777.27;1857145;76;27656;-72
2021/05/11 03:54:36;;;;;;;11.25;5.90;;;;;;;9.37;73.47;97774.20;1847364;76;22151;-73
2021/05/11 03:57:13;;;;;;;8.60;5.83;;;;;;;9.42;74.17;97774.99;1833142;76;22159;-73
2021/05/11 03:59:50;;;;;;;12.95;6.20;;;;;;;9.53;73.02;97770.33;1847354;76;22841;-72
2021/05/11 04:02:27;;;;;;;20.17;6.55;;;;;;;9.62;73.60;97772.72;1829671;76;22376;-72
2021/05/11 04:05:08;;;;;;;11.40;6.47;;;;;;;9.73;72.93;97765.34;1868637;76;28124;-73
2021/05/11 04:07:42;;;;;;;9.25;5.58;;;;;;;9.99;72.70;97770.84;1827278;76;22430;-73
2021/05/11 04:10:32;;;;;;;18.00;5.72;;;;;;;10.01;73.33;97761.12;1847332;76;22609;-72
2021/05/11 04:13:17;;;;;;;13.18;6.17;;;;;;;10.22;72.32;97763.95;1822423;76;22451;-72
2021/05/11 04:18:33;;;;;;;11.18;5.60;;;;;;;10.48;71.62;97750.19;1843718;76;22496;-73
2021/05/11 04:21:11;;;;;;;9.98;4.95;;;;;;;10.65;71.42;97752.72;1852211;77;23005;-73
2021/05/11 04:26:26;;;;;;;9.58;5.20;;;;;;;11.07;71.01;97740.34;1847721;77;22479;-72
2021/05/11 04:29:03;;;;;;;11.08;5.97;;;;;;;11.38;70.45;97739.97;1868631;76;38505;-72
2021/05/11 04:31:39;;;;;;;7.97;5.80;;;;;;;11.78;69.52;97738.58;1883242;76;21990;-73
2021/05/11 04:34:16;;;;;;;10.23;5.58;;;;;;;11.94;68.85;97742.71;1852383;77;22921;-73
2021/05/11 04:36:53;;;;;;;10.35;6.08;;;;;;;12.19;68.35;97732.55;1837488;76;22223;-73
2021/05/11 04:39:30;;;;;;;11.68;6.17;;;;;;;12.45;67.93;97735.09;1847359;75;22343;-73
2021/05/11 04:42:07;;;;;;;9.60;6.03;;;;;;;12.70;66.96;97729.20;1871264;76;22477;-73
2021/05/11 04:44:44;;;;;;;16.65;6.42;;;;;;;12.85;66.32;97738.19;1847462;76;22348;-73
2021/05/11 04:47:28;;;;;;;16.55;7.35;;;;;;;12.98;65.90;97735.45;1831078;76;22180;-72
2021/05/11 04:49:59;;;;;;;23.20;8.43;;;;;;;13.08;65.79;97726.31;1847613;76;22211;-73
2021/05/11 04:52:36;;;;;;;19.92;9.00;;;;;;;13.23;65.63;97733.38;1827592;76;22182;-72
2021/05/11 04:55:13;;;;;;;11.08;7.47;;;;;;;13.44;65.29;97730.48;1873954;76;27591;-73
2021/05/11 04:57:51;;;;;;;15.53;6.45;;;;;;;13.77;64.68;97733.04;1866076;76;22463;-73
2021/05/11 05:00:27;;;;;;;27.93;7.87;;;;;;;13.86;63.98;97726.31;1868613;76;27654;-72
2021/05/11 05:03:07;;;;;;;16.37;6.27;;;;;;;14.27;61.85;97728.84;1841971;76;28168;-73
2021/05/11 05:05:45;;;;;;;13.90;6.20;;;;;;;14.59;61.28;97726.42;1847581;76;22271;-73
2021/05/11 05:08:22;;;;;;;14.38;6.17;;;;;;;14.73;60.17;97728.52;1817240;76;22748;-73
2021/05/11 05:10:58;;;;;;;11.22;5.45;;;;;;;14.89;59.95;97728.35;1873913;76;27640;-73
2021/05/11 05:13:35;;;;;;;12.80;6.03;;;;;;;15.28;57.26;97730.00;1830227;76;27848;-73
2021/05/11 05:16:11;;;;;;;9.65;5.10;;;;;;;15.54;57.25;97721.30;1847150;76;22135;-73
2021/05/11 05:18:48;;;;;;;11.60;5.17;;;;;;;15.65;57.32;97715.02;1868703;76;27573;-72
2021/05/11 05:21:24;;;;;;;14.67;6.10;;;;;;;15.98;56.05;97718.06;1865478;76;27636;-73
2021/05/11 05:26:37;;;;;;;8.25;5.78;;;;;;;16.43;55.73;97712.25;1883691;76;22241;-73
2021/05/11 05:29:12;;;;;;;20.57;5.30;;;;;;;16.62;55.36;97708.00;1848090;76;22314;-73
2021/05/11 05:31:48;;;;;;;12.47;5.00;;;;;;;16.83;54.88;97708.11;1859699;76;27645;-73
2021/05/11 05:34:25;;;;;;;12.78;4.30;;;;;;;17.14;52.11;97697.44;1875404;75;22380;-73
2021/05/11 05:37:00;;;;;;;8.98;4.62;;;;;;;17.29;52.43;97694.14;1836737;76;22025;-73
2021/05/11 05:39:41;;;;;;;11.20;5.20;;;;;;;17.43;52.58;97694.71;1847340;76;22235;-73
2021/05/11 05:42:15;;;;;;;18.80;4.60;;;;;;;17.63;52.32;97693.69;1832751;76;23156;-73
2021/05/11 05:44:51;;;;;;;11.23;5.20;;;;;;;17.80;52.15;97690.05;1868752;76;27630;-73
2021/05/11 05:47:26;;;;;;;53.33;9.30;;;;;;;18.14;49.34;97687.58;1830683;76;22631;-73
2021/05/11 05:50:09;;;;;;;15.00;5.00;;;;;;;18.24;50.43;97689.33;1847486;76;22203;-73
2021/05/11 05:52:49;;;;;;;10.32;5.10;;;;;;;18.42;49.40;97680.34;1825747;76;22434;-73
2021/05/11 05:55:22;;;;;;;6.90;4.08;;;;;;;18.53;49.16;97675.22;1852388;77;22443;-73
2021/05/11 05:57:58;;;;;;;12.30;5.50;;;;;;;18.70;48.54;97674.25;1843190;76;27711;-73
2021/05/11 06:00:34;;;;;;;10.77;4.97;;;;;;;19.02;46.63;97680.81;1874095;76;27579;-73
2021/05/11 06:03:35;;;;;;;5.72;4.17;;;;;;;19.32;46.50;97677.27;1819212;76;22544;-73
2021/05/11 06:06:09;;;;;;;21.77;9.90;;;;;;;19.50;47.32;97665.45;1874116;76;27605;-73
2021/05/11 06:08:44;;;;;;;15.50;6.50;;;;;;;19.83;44.14;97667.46;1874072;76;27264;-73
2021/05/11 06:19:52;;;;;;;13.08;4.90;;;;;;;20.47;44.44;97658.83;1847650;76;22267;-73
2021/05/11 06:22:29;;;;;;;8.08;4.25;;;;;;;20.66;43.70;97658.12;1829658;76;22288;-73
2021/05/11 06:25:07;;;;;;;8.93;3.50;;;;;;;20.80;42.89;97646.11;1890194;76;22356;-73
2021/05/11 06:27:44;;;;;;;14.63;4.33;;;;;;;20.98;42.70;97646.55;1826215;76;21926;-73
2021/05/11 06:30:21;;;;;;;15.10;5.10;;;;;;;21.16;43.15;97640.08;1852408;77;22477;-73
2021/05/11 06:32:58;;;;;;;4.72;3.25;;;;;;;21.39;43.78;97640.47;1917173;74;21834;-73
2021/05/11 06:35:34;;;;;;;7.53;3.65;;;;;;;21.62;42.60;97640.58;1852389;77;22612;-73
2021/05/11 06:38:10;;;;;;;9.13;3.92;;;;;;;21.84;42.01;97638.27;1820248;76;22395;-73
2021/05/11 06:40:45;;;;;;;6.47;2.85;;;;;;;22.07;43.36;97637.78;1890165;76;22323;-73
2021/05/11 06:43:33;;;;;;;6.60;3.00;;;;;;;22.36;41.29;97643.25;1858553;76;22566;-73
2021/05/11 06:54:22;;;;;;;4.50;2.85;;;;;;;23.32;38.26;97625.53;1847699;76;21976;-73
2021/05/11 06:56:56;;;;;;;7.33;2.30;;;;;;;23.72;38.21;97615.05;1837508;76;22317;-73
2021/05/11 06:59:32;;;;;;;7.90;3.15;;;;;;;24.24;37.81;97618.23;1848102;75;21900;-73
2021/05/11 07:02:06;;;;;;;4.67;2.40;;;;;;;24.50;37.40;97616.54;1835204;76;22337;-73
2021/05/11 07:04:45;;;;;;;7.03;2.52;;;;;;;24.68;35.04;97610.57;1890159;76;22520;-73
2021/05/11 07:07:23;;;;;;;10.75;2.98;;;;;;;24.72;35.24;97608.05;1872768;76;22331;-73
2021/05/11 07:10:09;;;;;;;7.78;3.00;;;;;;;24.87;37.00;97610.95;1847630;76;22530;-73
2021/05/11 07:15:32;;;;;;;3.58;2.20;;;;;;;25.26;35.46;97602.34;1847678;76;22101;-73
2021/05/11 07:18:18;;;;;;;9.90;3.90;;;;;;;25.84;33.90;97600.70;1820015;76;22292;-73
2021/05/11 07:20:59;;;;;;;4.12;1.90;;;;;;;26.49;34.08;97590.56;1847648;76;22420;-73
2021/05/11 07:23:33;;;;;;;6.97;2.87;;;;;;;27.03;31.77;97596.95;1843712;76;22387;-73
2021/05/11 07:26:26;;;;;;;3.67;1.90;;;;;;;27.54;28.71;97589.53;1852212;77;22315;-73
2021/05/11 07:31:39;;;;;;;4.75;2.27;;;;;;;28.84;30.52;97585.06;1841314;76;22229;-73
2021/05/11 07:34:17;;;;;;;5.60;1.92;;;;;;;29.30;28.79;97580.27;1852386;77;22579;-74
2021/05/11 07:36:54;;;;;;;7.28;2.70;;;;;;;29.56;27.91;97589.39;1837668;76;22556;-74
2021/05/11 07:39:30;;;;;;;7.47;3.50;;;;;;;29.89;29.09;97587.80;1874032;76;27610;-74
2021/05/11 07:42:06;;;;;;;8.47;2.13;;;;;;;30.73;25.53;97584.27;1855470;76;28180;-74
2021/05/11 07:44:47;;;;;;;4.53;2.05;;;;;;;31.54;22.88;97584.08;1848070;76;22559;-74
2021/05/11 07:47:33;;;;;;;3.62;1.80;;;;;;;31.07;22.52;97579.11;1831920;76;22305;-74
2021/05/11 07:50:32;;;;;;;5.62;1.27;;;;;;;31.27;23.89;97583.38;1890216;76;22329;-74
2021/05/11 08:16:14;;;;;;;4.62;2.10;;;;;;;33.26;21.77;97561.37;1847218;76;22513;-74
2021/05/11 08:30:11;;;;;;;11.80;1.50;;;;;;;35.91;17.04;97562.45;1890259;76;22297;-74
2021/05/11 08:32:47;;;;;;;10.50;7.08;;;;;;;35.55;18.67;97549.66;1825384;76;22319;-74
2021/05/11 08:35:23;;;;;;;5.28;1.77;;;;;;;35.94;19.27;97553.69;1868789;76;28157;-74
2021/05/11 08:38:00;;;;;;;8.53;3.25;;;;;;;37.14;15.45;97544.44;1836631;77;27762;-74
2021/05/11 08:40:39;;;;;;;8.05;4.80;;;;;;;37.66;14.97;97556.08;1847323;76;22690;-74
2021/05/11 08:43:37;;;;;;;7.95;4.65;;;;;;;36.71;17.40;97554.05;1819742;76;22297;-74
2021/05/11 08:46:14;;;;;;;4.90;2.10;;;;;;;37.02;17.20;97550.40;1846864;76;22555;-74
2021/05/11 08:48:52;;;;;;;7.58;3.60;;;;;;;37.20;17.23;97555.28;1847602;76;22166;-74
2021/05/11 08:51:32;;;;;;;5.08;1.92;;;;;;;37.84;17.00;97548.23;1885897;76;22229;-74
2021/05/11 08:54:25;;;;;;;6.97;1.60;;;;;;;38.20;15.12;97543.73;1847635;76;22158;-74
2021/05/11 09:06:18;;;;;;;9.48;1.77;;;;;;;38.75;14.46;97542.14;1890196;76;22119;-75
2021/05/11 09:09:00;;;;;;;4.50;1.80;;;;;;;38.65;13.78;97552.07;1852421;77;22182;-74
2021/05/11 09:25:43;;;;;;;3.85;1.80;;;;;;;39.90;12.54;97548.49;1847676;76;22286;-74
2021/05/11 09:31:30;;;;;;;5.17;1.40;;;;;;;40.39;12.29;97544.19;1844961;76;22097;-74
2021/05/11 09:34:25;;;;;;;3.80;1.40;;;;;;;39.66;12.89;97538.67;1890243;76;21799;-74
2021/05/11 09:54:17;;;;;;;8.28;2.02;;;;;;;39.35;12.97;97536.88;1875737;76;22338;-74
2021/05/11 09:55:18;;;;;;;4.78;1.85;;;;;;;40.02;12.35;97533.28;1890195;76;22195;-74
2021/05/11 10:31:20;;;;;;;5.78;1.50;;;;;;;42.95;10.54;97496.96;1839105;76;22242;-74
2021/05/11 10:38:55;;;;;;;8.28;2.02;;;;;;;42.85;9.47;97504.14;1823358;76;22115;-74
2021/05/11 10:49:12;;;;;;;7.00;2.10;;;;;;;43.12;8.66;97497.81;1852446;77;21913;-74
2021/05/11 10:52:13;;;;;;;9.50;1.55;;;;;;;42.57;9.25;97502.57;1838669;76;22164;-74
2021/05/11 10:57:32;;;;;;;3.58;1.40;;;;;;;42.51;9.23;97488.26;1871805;76;22248;-74
2021/05/11 11:00:27;;;;;;;4.28;1.42;;;;;;;42.61;9.55;97484.59;1890224;76;22006;-74
2021/05/11 11:03:17;;;;;;;2.65;1.10;;;;;;;43.06;9.38;97491.30;1822145;76;22997;-74
2021/05/11 11:05:56;;;;;;;5.55;1.75;;;;;;;43.24;8.58;97485.79;1874911;75;22397;-74
2021/05/11 11:08:41;;;;;;;4.40;2.35;;;;;;;42.52;9.38;97481.27;1843817;75;22729;-74
2021/05/11 11:11:22;;;;;;;8.90;2.58;;;;;;;42.59;9.33;97481.48;1888458;76;22264;-74
2021/05/11 11:13:56;;;;;;;3.70;1.45;;;;;;;43.44;9.22;97477.73;1848115;76;22139;-74
2021/05/11 11:16:34;;;;;;;3.08;1.10;;;;;;;42.12;9.38;97477.38;1841992;76;22320;-74
2021/05/11 11:19:09;;;;;;;6.78;1.75;;;;;;;43.54;9.11;97470.48;1848091;76;22259;-74
2021/05/11 11:24:33;;;;;;;10.23;1.60;;;;;;;44.15;8.22;97482.62;1847684;76;22062;-74
2021/05/11 11:27:10;;;;;;;6.83;1.65;;;;;;;43.91;8.20;97479.61;1833643;76;22331;-74
2021/05/11 11:29:47;;;;;;;5.12;1.40;;;;;;;44.06;8.24;97480.78;1847437;76;22400;-74
2021/05/11 11:32:24;;;;;;;4.65;1.72;;;;;;;43.62;8.90;97477.23;1830619;76;21974;-74
2021/05/11 11:35:01;;;;;;;9.15;1.40;;;;;;;44.07;8.59;97477.28;1852635;77;22352;-74
2021/05/11 11:37:37;;;;;;;7.72;1.80;;;;;;;43.50;8.27;97473.60;1848251;76;27607;-76
2021/05/11 11:40:17;;;;;;;4.97;1.25;;;;;;;44.63;7.73;97475.18;1847882;76;22168;-74
2021/05/11 11:42:54;;;;;;;3.65;1.65;;;;;;;44.20;8.05;97477.58;1824359;76;21936;-74
2021/05/11 11:45:30;;;;;;;4.83;2.00;;;;;;;43.90;8.76;97468.08;1832465;76;27710;-74
2021/05/11 11:48:08;;;;;;;6.17;2.22;;;;;;;45.26;7.64;97478.70;1820793;76;22013;-74
2021/05/11 11:50:54;;;;;;;4.60;2.22;;;;;;;44.01;8.25;97469.36;1890446;76;22244;-74
2021/05/11 11:53:35;;;;;;;7.03;1.57;;;;;;;43.55;9.13;97465.69;1829006;76;27761;-74
2021/05/11 11:59:06;;;;;;;4.20;1.62;;;;;;;44.55;8.30;97461.31;1890510;76;21932;-74
2021/05/11 12:02:00;;;;;;;2.75;1.50;;;;;;;44.54;8.14;97455.48;1840567;75;22327;-74
2021/05/11 12:04:38;;;;;;;5.30;1.80;;;;;;;44.37;7.91;97447.58;1847970;76;22198;-74
2021/05/11 12:07:17;;;;;;;5.40;2.10;;;;;;;44.03;8.54;97444.73;1887291;76;22236;-74
2021/05/11 12:09:52;;;;;;;2.92;1.02;;;;;;;43.84;8.61;97442.27;1875210;75;22883;-74
2021/05/11 12:12:30;;;;;;;3.50;1.82;;;;;;;43.98;8.40;97440.45;1829126;76;22264;-74
2021/05/11 12:15:18;;;;;;;5.72;1.80;;;;;;;43.54;9.02;97437.70;1847756;76;22542;-74
2021/05/11 12:20:51;;;;;;;5.95;1.90;;;;;;;44.33;8.82;97433.55;1874238;76;27303;-74
2021/05/11 12:23:29;;;;;;;4.97;2.12;;;;;;;45.81;7.68;97426.79;1852691;77;23149;-74
2021/05/11 12:26:06;;;;;;;6.65;2.35;;;;;;;45.09;8.01;97431.52;1847644;76;22296;-74
2021/05/11 12:28:45;;;;;;;8.98;2.83;;;;;;;44.62;8.30;97417.16;1874296;76;32181;-74
2021/05/11 12:31:27;;;;;;;8.68;1.42;;;;;;;45.83;7.46;97409.08;1845392;76;27075;-74
2021/05/11 12:34:05;;;;;;;3.65;1.22;;;;;;;45.26;7.49;97424.39;1848414;76;26426;-74
2021/05/11 12:36:53;;;;;;;2.70;1.25;;;;;;;43.70;8.79;97414.11;1882813;76;22565;-74
2021/05/11 12:39:51;;;;;;;2.92;1.60;;;;;;;43.23;9.03;97412.98;1848432;76;22141;-74
2021/05/11 12:42:25;;;;;;;4.80;1.70;;;;;;;43.40;9.28;97401.64;1816127;76;28183;-74
2021/05/11 12:45:07;;;;;;;7.17;1.85;;;;;;;44.57;8.04;97403.67;1890482;76;22122;-74
2021/05/11 12:47:53;;;;;;;9.38;2.60;;;;;;;45.03;7.96;97402.17;1867962;76;21979;-74
2021/05/11 12:50:35;;;;;;;2.95;1.50;;;;;;;44.02;8.92;97393.91;1847620;76;22512;-74
2021/05/11 12:59:09;;;;;;;6.83;1.62;;;;;;;43.19;8.60;97388.25;1890512;76;21830;-74
2021/05/11 13:15:58;;;;;;;5.47;2.42;;;;;;;42.25;8.91;97360.28;1890273;76;22145;-74
2021/05/11 13:21:32;;;;;;;5.62;1.87;;;;;;;43.44;8.72;97350.86;1846708;76;22398;-74
2021/05/11 13:26:54;;;;;;;4.40;1.65;;;;;;;42.93;9.08;97347.89;1839703;76;22086;-74
2021/05/11 13:32:12;;;;;;;3.55;1.50;;;;;;;42.76;9.53;97344.22;1834785;76;21845;-74
2021/05/11 13:34:43;;;;;;;6.78;2.62;;;;;;;42.96;9.67;97336.13;1848100;76;22641;-74
2021/05/11 13:37:26;;;;;;;3.40;1.40;;;;;;;42.89;9.69;97330.91;1852403;76;28176;-74
2021/05/11 13:39:58;;;;;;;7.65;2.45;;;;;;;43.51;8.71;97335.45;1847651;76;22101;-74
2021/05/11 13:42:35;;;;;;;4.05;2.27;;;;;;;42.67;9.24;97327.37;1869982;76;22299;-74
2021/05/11 13:45:11;;;;;;;2.95;1.87;;;;;;;42.01;10.66;97327.14;1868752;76;27566;-74
2021/05/11 13:48:06;;;;;;;7.35;2.12;;;;;;;42.88;9.66;97317.95;1825145;76;21895;-74
2021/05/11 13:50:59;;;;;;;5.17;1.52;;;;;;;41.82;10.13;97319.66;1890211;76;22199;-74
2021/05/11 13:53:36;;;;;;;3.30;1.80;;;;;;;41.39;10.44;97330.95;1843935;75;22137;-74
2021/05/11 14:02:15;;;;;;;11.00;7.67;;;;;;;41.62;9.95;97319.89;1865653;76;38024;-74
2021/05/11 14:04:40;;;;;;;11.63;5.85;;;;;;;41.58;9.90;97319.34;1847365;76;22205;-74
2021/05/11 14:07:16;;;;;;;9.38;4.55;;;;;;;40.86;10.24;97314.55;1853246;76;27637;-74
2021/05/11 14:09:53;;;;;;;6.92;2.77;;;;;;;40.75;10.56;97307.92;1847641;76;22189;-74
2021/05/11 14:12:29;;;;;;;6.95;2.35;;;;;;;40.27;10.83;97305.55;1850153;76;28147;-74
2021/05/11 14:15:06;;;;;;;8.10;1.87;;;;;;;40.37;10.66;97302.70;1868773;76;27549;-74
2021/05/11 14:17:43;;;;;;;7.47;2.85;;;;;;;40.25;10.98;97293.29;1867893;76;22569;-74
2021/05/11 14:20:21;;;;;;;7.50;2.30;;;;;;;40.35;10.88;97286.83;1847330;76;22273;-74
2021/05/11 14:22:57;;;;;;;8.60;2.27;;;;;;;39.90;10.72;97291.09;1843562;76;27634;-74
2021/05/11 14:25:33;;;;;;;4.12;1.70;;;;;;;40.01;10.65;97287.82;1884829;75;21906;-74
2021/05/11 14:28:10;;;;;;;7.85;2.08;;;;;;;39.28;11.06;97283.06;1840553;75;27665;-74
2021/05/11 14:30:47;;;;;;;9.33;2.17;;;;;;;39.84;10.69;97283.95;1890211;76;22187;-74
2021/05/11 14:33:24;;;;;;;6.35;2.17;;;;;;;38.86;11.64;97281.28;1816877;76;22454;-74
2021/05/11 14:36:01;;;;;;;6.12;2.55;;;;;;;38.97;11.34;97278.50;1847656;76;22269;-74
2021/05/11 14:38:37;;;;;;;7.47;2.70;;;;;;;38.31;12.06;97285.23;1865212;74;27501;-74
2021/05/11 14:41:12;;;;;;;8.50;2.30;;;;;;;38.41;12.09;97282.47;1847705;76;22215;-74
2021/05/11 14:43:48;;;;;;;9.70;2.25;;;;;;;38.09;12.31;97282.05;1847486;76;22234;-74
2021/05/11 14:46:26;;;;;;;5.37;1.95;;;;;;;37.94;11.97;97280.41;1843831;76;22311;-74
2021/05/11 14:49:03;;;;;;;5.40;2.00;;;;;;;37.80;12.09;97285.54;1890228;76;22272;-74
2021/05/11 14:51:40;;;;;;;10.10;2.47;;;;;;;36.90;13.17;97281.74;1883211;75;22087;-74
2021/05/11 14:54:17;;;;;;;4.35;2.02;;;;;;;37.20;12.98;97276.50;1847348;76;22702;-74
2021/05/11 14:56:53;;;;;;;5.47;1.92;;;;;;;37.52;12.79;97271.38;1858613;76;28725;-74
2021/05/11 14:59:29;;;;;;;6.67;2.92;;;;;;;37.92;12.54;97269.59;1868808;76;27593;-74
2021/05/11 15:02:06;;;;;;;8.93;3.37;;;;;;;37.83;13.14;97269.66;1855673;76;27694;-74
2021/05/11 15:04:44;;;;;;;6.47;3.20;;;;;;;37.87;12.90;97268.86;1890214;76;22118;-74
2021/05/11 15:07:20;;;;;;;5.50;2.00;;;;;;;37.53;12.93;97270.90;1831706;76;22166;-74
2021/05/11 15:09:57;;;;;;;8.38;2.27;;;;;;;37.03;13.17;97258.98;1847517;76;22269;-74
2021/05/11 15:12:34;;;;;;;9.15;2.08;;;;;;;36.78;13.38;97258.08;1828446;76;22201;-74
2021/05/11 15:15:15;;;;;;;10.35;1.85;;;;;;;36.83;13.42;97258.05;1847486;76;22454;-73
2021/05/11 15:20:28;;;;;;;6.08;2.22;;;;;;;36.17;14.20;97264.20;1847654;76;22425;-73
2021/05/11 15:23:04;;;;;;;11.50;2.57;;;;;;;36.11;14.16;97261.84;1847073;76;38438;-73
2021/05/11 15:25:40;;;;;;;8.70;4.08;;;;;;;36.69;13.34;97254.64;1868834;76;27550;-74
2021/05/11 15:28:17;;;;;;;5.90;2.00;;;;;;;36.89;13.21;97256.19;1838926;76;27639;-73
2021/05/11 15:30:54;;;;;;;8.65;2.30;;;;;;;36.60;13.50;97245.41;1847363;76;21974;-74
2021/05/11 15:33:31;;;;;;;9.93;2.47;;;;;;;35.93;14.56;97241.47;1844560;76;22071;-74
2021/05/11 15:36:08;;;;;;;3.98;1.90;;;;;;;35.65;14.66;97238.42;1847369;76;21747;-74
2021/05/11 15:38:45;;;;;;;9.80;3.00;;;;;;;35.43;15.02;97233.66;1868771;76;28184;-73
2021/05/11 15:41:21;;;;;;;8.55;2.52;;;;;;;35.39;14.83;97235.84;1866244;76;27581;-73
2021/05/11 15:43:57;;;;;;;7.42;2.55;;;;;;;35.40;14.76;97232.41;1868779;76;27639;-73
2021/05/11 15:46:34;;;;;;;4.42;1.75;;;;;;;35.12;14.63;97226.62;1884583;76;22316;-74
2021/05/11 15:49:10;;;;;;;4.87;2.37;;;;;;;34.79;14.83;97233.33;1868789;76;28084;-73
2021/05/11 15:51:47;;;;;;;14.47;8.13;;;;;;;34.38;15.27;97236.62;1838911;76;22313;-73
2021/05/11 15:54:24;;;;;;;8.90;2.45;;;;;;;34.07;15.75;97240.73;1847369;76;22234;-73
2021/05/11 15:56:59;;;;;;;12.13;2.40;;;;;;;34.11;15.74;97234.37;1836943;76;21978;-73
2021/05/11 15:59:35;;;;;;;7.62;2.62;;;;;;;33.88;16.02;97231.36;1868800;76;27588;-73
2021/05/11 16:02:12;;;;;;;7.83;3.20;;;;;;;34.22;15.84;97232.59;1854260;76;28249;-74
2021/05/11 16:04:48;;;;;;;8.40;2.58;;;;;;;34.24;15.78;97223.06;1868814;76;36806;-74
2021/05/11 16:07:25;;;;;;;4.72;2.22;;;;;;;34.28;15.74;97219.52;1830249;76;22122;-73
2021/05/11 16:10:08;;;;;;;12.07;5.03;;;;;;;34.10;15.77;97213.77;1890195;76;22913;-74
2021/05/11 16:12:43;;;;;;;12.65;3.70;;;;;;;33.50;16.52;97213.76;1826866;76;22368;-73
2021/05/11 16:15:21;;;;;;;11.75;4.62;;;;;;;32.95;16.93;97208.27;1884821;76;21843;-73
2021/05/11 16:17:58;;;;;;;7.15;4.15;;;;;;;32.14;17.38;97208.61;1864433;76;22229;-73
2021/05/11 16:20:35;;;;;;;6.53;2.72;;;;;;;31.52;17.84;97205.78;1847377;76;22283;-73
2021/05/11 16:23:11;;;;;;;15.30;6.43;;;;;;;31.04;18.67;97214.31;1845363;76;28574;-73
2021/05/11 16:25:47;;;;;;;10.53;3.90;;;;;;;30.95;19.17;97202.94;1868780;76;28186;-73
2021/05/11 16:28:24;;;;;;;11.07;3.20;;;;;;;30.79;19.35;97205.09;1842426;76;28157;-73
2021/05/11 16:31:00;;;;;;;10.10;3.52;;;;;;;30.53;19.88;97199.05;1847483;76;22383;-73
2021/05/11 16:33:37;;;;;;;6.42;2.33;;;;;;;30.06;20.23;97206.13;1881068;74;22219;-73
2021/05/11 16:36:14;;;;;;;15.40;9.07;;;;;;;29.85;20.38;97207.95;1867948;76;27638;-73
2021/05/11 16:38:51;;;;;;;6.33;4.03;;;;;;;29.85;20.77;97203.76;1847377;76;22668;-73
2021/05/11 16:41:28;;;;;;;6.87;2.85;;;;;;;29.47;21.01;97204.76;1843329;76;22247;-73
2021/05/11 16:44:06;;;;;;;6.17;3.22;;;;;;;29.27;21.05;97210.88;1847392;76;22534;-73
2021/05/11 16:46:41;;;;;;;8.95;3.80;;;;;;;29.10;21.17;97206.38;1866790;76;27317;-73